Aérodrome :
LOGIN :

S'inscrire | Disclaimer

   EN    FR    IT 

 










Légende :    VFR   VFR Marginal   IFR   IFR Intensif   IFR Très Intensif
Visi : 
Plafond : 
>= 8 km
>= 3000ft
5 à 8 km
1000 à 3000 ft
1500m à 5 km
500 à 1000 ft
800 à 1500m
200 à 500 ft
< 800m
< 200 ft
Symboles :   Orages  Brouillard  Fortes neiges  Fortes précipitations  Vent > 20 kt
SIGMETs :   Divers  Orages  Givrage  Turbulence  Onde Orograph.  Cendres Volcan.







- Altitude de l'aérodrome : 37 ft
- Code IATA : FRO


ENFL - Florø

DERNIER METAR :
  • 190220Z AUTO 19018KT 9999NDV SCT020/// OVC066/// 13/10 Q1009

METARs EXPIRÉS :
  • 190150Z AUTO 19019KT 9999NDV SCT021/// OVC068/// 13/10 Q1009
  • 190120Z AUTO 19017KT 9999NDV BKN019/// OVC074/// 13/10 Q1009
  • 190050Z AUTO 19017KT 9999NDV FEW019/// OVC074/// 13/10 Q1009
  • 190020Z AUTO 19017KT 9999NDV OVC066/// 13/10 Q1009
  • 182350Z AUTO 19017KT 9999NDV FEW020/// OVC064/// 13/10 Q1009

Prévision TAF périmée.
Pas de NOTAMs connus pour ce terrain.



MET'MAP, la Météo Aéronautique d'un coup d'oeil ! - Copyright ORBIFLY Décembre 2007 - Disclaimer

ORBIFLY MET'MAP TEAM :

Programmation & Développement : Alexandra Zaïnal
Conception & Développement : Baudouin d'Aumeries
Co-Programmation & Développement : Marc-Olivier Méhu
Soutien technique & logistique : Manuel Goepfert

Contact : metmap@orbifly.com




SOURCES & CREDITS :

   NOAA